sensor_id;sensor_type;location;lat;lon;timestamp;P1;durP1;ratioP1;P2;durP2;ratioP2
31182;SDS011;17813;0.000;0.000;2023-03-18T00:01:31;10.53;;;7.33;;
31182;SDS011;17813;0.000;0.000;2023-03-18T00:03:59;9.57;;;7.20;;
31182;SDS011;17813;0.000;0.000;2023-03-18T00:06:26;11.17;;;7.40;;
31182;SDS011;17813;0.000;0.000;2023-03-18T00:08:55;12.97;;;7.13;;
31182;SDS011;17813;0.000;0.000;2023-03-18T00:11:22;9.40;;;6.93;;
31182;SDS011;17813;0.000;0.000;2023-03-18T00:13:49;10.43;;;7.13;;
31182;SDS011;17813;0.000;0.000;2023-03-18T00:16:20;11.13;;;7.30;;
31182;SDS011;17813;0.000;0.000;2023-03-18T00:18:47;11.07;;;7.17;;
31182;SDS011;17813;0.000;0.000;2023-03-18T00:21:15;9.47;;;6.57;;
31182;SDS011;17813;0.000;0.000;2023-03-18T00:23:42;8.53;;;6.30;;
31182;SDS011;17813;0.000;0.000;2023-03-18T00:26:10;9.03;;;6.10;;
31182;SDS011;17813;0.000;0.000;2023-03-18T00:28:36;8.97;;;6.50;;
31182;SDS011;17813;0.000;0.000;2023-03-18T00:31:07;9.27;;;6.73;;
31182;SDS011;17813;0.000;0.000;2023-03-18T00:33:38;8.73;;;6.37;;
31182;SDS011;17813;0.000;0.000;2023-03-18T00:36:08;9.57;;;6.50;;
31182;SDS011;17813;0.000;0.000;2023-03-18T00:38:59;6.60;;;5.90;;
31182;SDS011;17813;0.000;0.000;2023-03-18T00:41:29;7.83;;;5.80;;
31182;SDS011;17813;0.000;0.000;2023-03-18T00:43:57;7.27;;;5.93;;
31182;SDS011;17813;0.000;0.000;2023-03-18T00:46:26;7.57;;;5.40;;
31182;SDS011;17813;0.000;0.000;2023-03-18T00:48:59;6.53;;;5.53;;
31182;SDS011;17813;0.000;0.000;2023-03-18T00:51:30;7.13;;;5.70;;
31182;SDS011;17813;0.000;0.000;2023-03-18T00:53:59;8.60;;;5.70;;
31182;SDS011;17813;0.000;0.000;2023-03-18T00:56:32;8.90;;;5.87;;
31182;SDS011;17813;0.000;0.000;2023-03-18T00:59:01;6.57;;;5.80;;
31182;SDS011;17813;0.000;0.000;2023-03-18T01:01:30;7.97;;;6.00;;
31182;SDS011;17813;0.000;0.000;2023-03-18T01:03:58;8.43;;;5.90;;
31182;SDS011;17813;0.000;0.000;2023-03-18T01:06:27;6.90;;;5.30;;
31182;SDS011;17813;0.000;0.000;2023-03-18T01:08:56;7.53;;;5.70;;
31182;SDS011;17813;0.000;0.000;2023-03-18T01:11:25;8.23;;;6.07;;
31182;SDS011;17813;0.000;0.000;2023-03-18T01:13:53;7.80;;;6.27;;
31182;SDS011;17813;0.000;0.000;2023-03-18T01:16:21;8.50;;;5.50;;
31182;SDS011;17813;0.000;0.000;2023-03-18T01:18:48;7.50;;;5.63;;
31182;SDS011;17813;0.000;0.000;2023-03-18T01:21:16;6.73;;;5.57;;
31182;SDS011;17813;0.000;0.000;2023-03-18T01:23:44;7.77;;;6.10;;
31182;SDS011;17813;0.000;0.000;2023-03-18T01:26:11;6.70;;;5.93;;
31182;SDS011;17813;0.000;0.000;2023-03-18T01:28:38;8.20;;;5.80;;
31182;SDS011;17813;0.000;0.000;2023-03-18T01:31:07;7.30;;;5.70;;
31182;SDS011;17813;0.000;0.000;2023-03-18T01:33:34;7.03;;;5.47;;
31182;SDS011;17813;0.000;0.000;2023-03-18T01:36:02;8.07;;;5.60;;
31182;SDS011;17813;0.000;0.000;2023-03-18T01:38:29;8.57;;;5.87;;
31182;SDS011;17813;0.000;0.000;2023-03-18T01:40:57;8.67;;;6.00;;
31182;SDS011;17813;0.000;0.000;2023-03-18T01:43:32;7.80;;;5.67;;
31182;SDS011;17813;0.000;0.000;2023-03-18T01:49:09;7.77;;;5.43;;
31182;SDS011;17813;0.000;0.000;2023-03-18T01:51:50;7.33;;;5.60;;
31182;SDS011;17813;0.000;0.000;2023-03-18T01:54:23;6.43;;;5.43;;
31182;SDS011;17813;0.000;0.000;2023-03-18T01:56:53;7.43;;;5.70;;
31182;SDS011;17813;0.000;0.000;2023-03-18T01:59:25;7.00;;;5.43;;
31182;SDS011;17813;0.000;0.000;2023-03-18T02:02:06;6.20;;;5.23;;
31182;SDS011;17813;0.000;0.000;2023-03-18T02:04:43;6.57;;;5.33;;
31182;SDS011;17813;0.000;0.000;2023-03-18T02:07:17;7.23;;;5.50;;
31182;SDS011;17813;0.000;0.000;2023-03-18T02:09:46;7.30;;;5.43;;
31182;SDS011;17813;0.000;0.000;2023-03-18T02:12:18;6.80;;;5.53;;
31182;SDS011;17813;0.000;0.000;2023-03-18T02:14:49;6.67;;;5.27;;
31182;SDS011;17813;0.000;0.000;2023-03-18T02:17:18;7.00;;;5.70;;
31182;SDS011;17813;0.000;0.000;2023-03-18T02:22:50;7.27;;;5.70;;
31182;SDS011;17813;0.000;0.000;2023-03-18T02:28:23;7.57;;;5.57;;
31182;SDS011;17813;0.000;0.000;2023-03-18T02:30:54;7.43;;;5.77;;
31182;SDS011;17813;0.000;0.000;2023-03-18T02:33:29;7.03;;;5.50;;
31182;SDS011;17813;0.000;0.000;2023-03-18T02:36:01;7.33;;;5.80;;
31182;SDS011;17813;0.000;0.000;2023-03-18T02:38:33;7.33;;;5.40;;
31182;SDS011;17813;0.000;0.000;2023-03-18T02:41:04;6.80;;;5.00;;
31182;SDS011;17813;0.000;0.000;2023-03-18T02:43:37;8.43;;;5.67;;
31182;SDS011;17813;0.000;0.000;2023-03-18T02:48:45;8.53;;;5.90;;
31182;SDS011;17813;0.000;0.000;2023-03-18T02:51:15;8.20;;;5.73;;
31182;SDS011;17813;0.000;0.000;2023-03-18T02:53:42;8.60;;;5.53;;
31182;SDS011;17813;0.000;0.000;2023-03-18T02:56:10;9.20;;;5.87;;
31182;SDS011;17813;0.000;0.000;2023-03-18T02:58:38;8.13;;;6.00;;
31182;SDS011;17813;0.000;0.000;2023-03-18T03:01:05;7.90;;;5.93;;
31182;SDS011;17813;0.000;0.000;2023-03-18T03:03:33;8.90;;;6.10;;
31182;SDS011;17813;0.000;0.000;2023-03-18T03:06:01;8.43;;;5.93;;
31182;SDS011;17813;0.000;0.000;2023-03-18T03:08:29;8.33;;;5.70;;
31182;SDS011;17813;0.000;0.000;2023-03-18T03:10:56;6.87;;;5.77;;
31182;SDS011;17813;0.000;0.000;2023-03-18T03:13:23;7.67;;;6.33;;
31182;SDS011;17813;0.000;0.000;2023-03-18T03:15:50;8.23;;;5.87;;
31182;SDS011;17813;0.000;0.000;2023-03-18T03:18:18;7.30;;;5.83;;
31182;SDS011;17813;0.000;0.000;2023-03-18T03:20:46;6.87;;;5.33;;
31182;SDS011;17813;0.000;0.000;2023-03-18T03:23:15;8.80;;;5.40;;
31182;SDS011;17813;0.000;0.000;2023-03-18T03:25:42;6.73;;;5.70;;
31182;SDS011;17813;0.000;0.000;2023-03-18T03:28:11;6.73;;;5.57;;
31182;SDS011;17813;0.000;0.000;2023-03-18T03:30:39;10.00;;;6.10;;
31182;SDS011;17813;0.000;0.000;2023-03-18T03:33:06;7.57;;;5.80;;
31182;SDS011;17813;0.000;0.000;2023-03-18T03:35:37;9.43;;;5.67;;
31182;SDS011;17813;0.000;0.000;2023-03-18T03:38:06;7.10;;;5.57;;
31182;SDS011;17813;0.000;0.000;2023-03-18T03:40:34;6.23;;;5.47;;
31182;SDS011;17813;0.000;0.000;2023-03-18T03:43:01;8.43;;;5.80;;
31182;SDS011;17813;0.000;0.000;2023-03-18T03:45:29;6.50;;;5.37;;
31182;SDS011;17813;0.000;0.000;2023-03-18T03:47:56;8.23;;;5.67;;
31182;SDS011;17813;0.000;0.000;2023-03-18T03:50:23;6.83;;;5.57;;
31182;SDS011;17813;0.000;0.000;2023-03-18T03:52:51;6.70;;;5.60;;
31182;SDS011;17813;0.000;0.000;2023-03-18T03:55:19;10.57;;;5.80;;
31182;SDS011;17813;0.000;0.000;2023-03-18T03:57:47;7.83;;;5.40;;
31182;SDS011;17813;0.000;0.000;2023-03-18T04:00:15;7.20;;;5.77;;
31182;SDS011;17813;0.000;0.000;2023-03-18T04:02:46;7.07;;;5.47;;
31182;SDS011;17813;0.000;0.000;2023-03-18T04:05:15;7.03;;;5.47;;
31182;SDS011;17813;0.000;0.000;2023-03-18T04:07:45;6.90;;;5.87;;
31182;SDS011;17813;0.000;0.000;2023-03-18T04:10:13;8.17;;;5.20;;
31182;SDS011;17813;0.000;0.000;2023-03-18T04:12:45;6.03;;;5.27;;
31182;SDS011;17813;0.000;0.000;2023-03-18T04:15:13;7.40;;;5.50;;
31182;SDS011;17813;0.000;0.000;2023-03-18T04:17:41;7.40;;;5.67;;
31182;SDS011;17813;0.000;0.000;2023-03-18T04:20:10;6.77;;;5.60;;
31182;SDS011;17813;0.000;0.000;2023-03-18T04:22:37;6.37;;;5.60;;
31182;SDS011;17813;0.000;0.000;2023-03-18T04:25:05;8.43;;;5.73;;
31182;SDS011;17813;0.000;0.000;2023-03-18T04:27:33;6.93;;;5.30;;
31182;SDS011;17813;0.000;0.000;2023-03-18T04:29:59;5.90;;;5.20;;
31182;SDS011;17813;0.000;0.000;2023-03-18T04:32:27;6.17;;;5.40;;
31182;SDS011;17813;0.000;0.000;2023-03-18T04:34:54;6.67;;;5.53;;
31182;SDS011;17813;0.000;0.000;2023-03-18T04:37:21;5.87;;;5.13;;
31182;SDS011;17813;0.000;0.000;2023-03-18T04:39:48;7.77;;;5.47;;
31182;SDS011;17813;0.000;0.000;2023-03-18T04:42:16;7.67;;;5.20;;
31182;SDS011;17813;0.000;0.000;2023-03-18T04:44:43;6.50;;;5.30;;
31182;SDS011;17813;0.000;0.000;2023-03-18T04:47:11;6.50;;;5.80;;
31182;SDS011;17813;0.000;0.000;2023-03-18T04:49:38;6.37;;;5.60;;
31182;SDS011;17813;0.000;0.000;2023-03-18T04:52:05;8.27;;;5.83;;
31182;SDS011;17813;0.000;0.000;2023-03-18T04:54:34;8.70;;;5.70;;
31182;SDS011;17813;0.000;0.000;2023-03-18T04:57:02;7.40;;;5.73;;
31182;SDS011;17813;0.000;0.000;2023-03-18T04:59:30;8.73;;;6.30;;
31182;SDS011;17813;0.000;0.000;2023-03-18T05:01:57;7.53;;;5.60;;
31182;SDS011;17813;0.000;0.000;2023-03-18T05:04:24;7.37;;;5.63;;
31182;SDS011;17813;0.000;0.000;2023-03-18T05:06:52;7.13;;;5.90;;
31182;SDS011;17813;0.000;0.000;2023-03-18T05:09:19;7.37;;;5.77;;
31182;SDS011;17813;0.000;0.000;2023-03-18T05:11:46;8.30;;;5.90;;
31182;SDS011;17813;0.000;0.000;2023-03-18T05:14:13;7.87;;;5.87;;
31182;SDS011;17813;0.000;0.000;2023-03-18T05:16:41;7.80;;;5.90;;
31182;SDS011;17813;0.000;0.000;2023-03-18T05:19:08;6.83;;;5.50;;
31182;SDS011;17813;0.000;0.000;2023-03-18T05:21:36;7.77;;;5.73;;
31182;SDS011;17813;0.000;0.000;2023-03-18T05:24:03;7.03;;;5.93;;
31182;SDS011;17813;0.000;0.000;2023-03-18T05:26:30;8.90;;;6.00;;
31182;SDS011;17813;0.000;0.000;2023-03-18T05:28:57;6.90;;;5.97;;
31182;SDS011;17813;0.000;0.000;2023-03-18T05:31:24;7.97;;;5.73;;
31182;SDS011;17813;0.000;0.000;2023-03-18T05:33:52;6.60;;;4.83;;
31182;SDS011;17813;0.000;0.000;2023-03-18T05:36:18;8.37;;;5.77;;
31182;SDS011;17813;0.000;0.000;2023-03-18T05:38:45;6.73;;;5.30;;
31182;SDS011;17813;0.000;0.000;2023-03-18T05:41:12;6.93;;;5.40;;
31182;SDS011;17813;0.000;0.000;2023-03-18T05:43:39;7.93;;;5.47;;
31182;SDS011;17813;0.000;0.000;2023-03-18T05:46:07;6.63;;;5.57;;
31182;SDS011;17813;0.000;0.000;2023-03-18T05:48:34;8.33;;;5.73;;
31182;SDS011;17813;0.000;0.000;2023-03-18T05:51:01;8.40;;;6.13;;
31182;SDS011;17813;0.000;0.000;2023-03-18T05:53:29;8.60;;;6.40;;
31182;SDS011;17813;0.000;0.000;2023-03-18T05:55:59;9.23;;;5.77;;
31182;SDS011;17813;0.000;0.000;2023-03-18T05:58:30;7.80;;;5.57;;
31182;SDS011;17813;0.000;0.000;2023-03-18T06:01:02;6.57;;;5.70;;
31182;SDS011;17813;0.000;0.000;2023-03-18T06:03:29;8.53;;;5.60;;
31182;SDS011;17813;0.000;0.000;2023-03-18T06:05:56;7.37;;;5.47;;
31182;SDS011;17813;0.000;0.000;2023-03-18T06:08:23;7.93;;;5.80;;
31182;SDS011;17813;0.000;0.000;2023-03-18T06:10:50;9.03;;;6.07;;
31182;SDS011;17813;0.000;0.000;2023-03-18T06:13:18;8.90;;;5.80;;
31182;SDS011;17813;0.000;0.000;2023-03-18T06:15:46;9.63;;;5.77;;
31182;SDS011;17813;0.000;0.000;2023-03-18T06:18:13;12.40;;;6.37;;
31182;SDS011;17813;0.000;0.000;2023-03-18T06:20:40;8.90;;;5.90;;
31182;SDS011;17813;0.000;0.000;2023-03-18T06:23:07;7.17;;;5.70;;
31182;SDS011;17813;0.000;0.000;2023-03-18T06:25:34;9.17;;;5.27;;
31182;SDS011;17813;0.000;0.000;2023-03-18T06:28:01;6.53;;;5.10;;
31182;SDS011;17813;0.000;0.000;2023-03-18T06:30:28;6.77;;;5.53;;
31182;SDS011;17813;0.000;0.000;2023-03-18T06:32:55;7.13;;;5.40;;
31182;SDS011;17813;0.000;0.000;2023-03-18T06:35:22;7.93;;;5.47;;
31182;SDS011;17813;0.000;0.000;2023-03-18T06:37:51;8.17;;;5.30;;
31182;SDS011;17813;0.000;0.000;2023-03-18T06:40:19;10.53;;;5.57;;
31182;SDS011;17813;0.000;0.000;2023-03-18T06:42:46;6.47;;;5.03;;
31182;SDS011;17813;0.000;0.000;2023-03-18T06:45:14;6.50;;;4.83;;
31182;SDS011;17813;0.000;0.000;2023-03-18T06:47:42;6.40;;;5.07;;
31182;SDS011;17813;0.000;0.000;2023-03-18T06:50:10;6.30;;;5.13;;
31182;SDS011;17813;0.000;0.000;2023-03-18T06:52:38;7.10;;;5.53;;
31182;SDS011;17813;0.000;0.000;2023-03-18T06:55:06;6.53;;;5.20;;
31182;SDS011;17813;0.000;0.000;2023-03-18T06:57:34;6.33;;;5.33;;
31182;SDS011;17813;0.000;0.000;2023-03-18T07:00:01;6.67;;;5.10;;
31182;SDS011;17813;0.000;0.000;2023-03-18T07:02:30;7.40;;;5.37;;
31182;SDS011;17813;0.000;0.000;2023-03-18T07:04:58;7.87;;;5.37;;
31182;SDS011;17813;0.000;0.000;2023-03-18T07:07:25;7.33;;;5.20;;
31182;SDS011;17813;0.000;0.000;2023-03-18T07:09:53;7.10;;;5.57;;
31182;SDS011;17813;0.000;0.000;2023-03-18T07:12:21;6.73;;;5.63;;
31182;SDS011;17813;0.000;0.000;2023-03-18T07:14:48;9.23;;;5.37;;
31182;SDS011;17813;0.000;0.000;2023-03-18T07:17:15;7.67;;;5.30;;
31182;SDS011;17813;0.000;0.000;2023-03-18T07:19:43;7.17;;;5.10;;
31182;SDS011;17813;0.000;0.000;2023-03-18T07:22:12;6.23;;;5.20;;
31182;SDS011;17813;0.000;0.000;2023-03-18T07:24:40;6.43;;;5.40;;
31182;SDS011;17813;0.000;0.000;2023-03-18T07:27:07;5.60;;;5.10;;
31182;SDS011;17813;0.000;0.000;2023-03-18T07:29:35;6.30;;;5.00;;
31182;SDS011;17813;0.000;0.000;2023-03-18T07:32:02;6.77;;;5.17;;
31182;SDS011;17813;0.000;0.000;2023-03-18T07:34:29;6.37;;;5.50;;
31182;SDS011;17813;0.000;0.000;2023-03-18T07:36:57;5.73;;;4.80;;
31182;SDS011;17813;0.000;0.000;2023-03-18T07:39:25;6.07;;;4.80;;
31182;SDS011;17813;0.000;0.000;2023-03-18T07:41:53;7.43;;;4.90;;
31182;SDS011;17813;0.000;0.000;2023-03-18T07:44:22;6.50;;;5.03;;
31182;SDS011;17813;0.000;0.000;2023-03-18T07:46:50;5.77;;;5.13;;
31182;SDS011;17813;0.000;0.000;2023-03-18T07:49:17;6.37;;;5.13;;
31182;SDS011;17813;0.000;0.000;2023-03-18T07:51:44;5.83;;;5.17;;
31182;SDS011;17813;0.000;0.000;2023-03-18T07:54:29;6.80;;;4.90;;
31182;SDS011;17813;0.000;0.000;2023-03-18T07:57:17;6.30;;;5.40;;
31182;SDS011;17813;0.000;0.000;2023-03-18T08:00:01;6.43;;;4.57;;
31182;SDS011;17813;0.000;0.000;2023-03-18T08:02:32;4.93;;;4.40;;
31182;SDS011;17813;0.000;0.000;2023-03-18T08:05:01;5.90;;;5.13;;
31182;SDS011;17813;0.000;0.000;2023-03-18T08:07:29;7.63;;;5.43;;
31182;SDS011;17813;0.000;0.000;2023-03-18T08:09:59;5.93;;;4.60;;
31182;SDS011;17813;0.000;0.000;2023-03-18T08:12:26;7.77;;;4.97;;
31182;SDS011;17813;0.000;0.000;2023-03-18T08:14:53;5.63;;;4.80;;
31182;SDS011;17813;0.000;0.000;2023-03-18T08:17:21;7.10;;;5.07;;
31182;SDS011;17813;0.000;0.000;2023-03-18T08:19:48;6.87;;;5.17;;
31182;SDS011;17813;0.000;0.000;2023-03-18T08:22:15;5.80;;;5.20;;
31182;SDS011;17813;0.000;0.000;2023-03-18T08:24:42;8.47;;;5.20;;
31182;SDS011;17813;0.000;0.000;2023-03-18T08:27:10;8.43;;;5.33;;
31182;SDS011;17813;0.000;0.000;2023-03-18T08:29:37;6.97;;;5.27;;
31182;SDS011;17813;0.000;0.000;2023-03-18T08:32:04;6.67;;;5.03;;
31182;SDS011;17813;0.000;0.000;2023-03-18T08:34:32;9.57;;;5.43;;
31182;SDS011;17813;0.000;0.000;2023-03-18T08:37:00;7.53;;;5.30;;
31182;SDS011;17813;0.000;0.000;2023-03-18T08:39:27;7.77;;;5.60;;
31182;SDS011;17813;0.000;0.000;2023-03-18T08:41:55;7.80;;;5.10;;
31182;SDS011;17813;0.000;0.000;2023-03-18T08:44:22;9.33;;;4.90;;
31182;SDS011;17813;0.000;0.000;2023-03-18T08:46:49;6.07;;;5.20;;
31182;SDS011;17813;0.000;0.000;2023-03-18T08:49:16;7.17;;;5.20;;
31182;SDS011;17813;0.000;0.000;2023-03-18T08:51:44;5.70;;;5.10;;
31182;SDS011;17813;0.000;0.000;2023-03-18T08:54:11;6.07;;;5.30;;
31182;SDS011;17813;0.000;0.000;2023-03-18T08:56:38;7.47;;;5.37;;
31182;SDS011;17813;0.000;0.000;2023-03-18T08:59:05;7.80;;;5.20;;
31182;SDS011;17813;0.000;0.000;2023-03-18T09:01:32;5.60;;;4.97;;
31182;SDS011;17813;0.000;0.000;2023-03-18T09:03:59;6.33;;;5.40;;
31182;SDS011;17813;0.000;0.000;2023-03-18T09:06:27;5.20;;;4.70;;
31182;SDS011;17813;0.000;0.000;2023-03-18T09:08:55;6.27;;;4.73;;
31182;SDS011;17813;0.000;0.000;2023-03-18T09:11:22;5.40;;;4.87;;
31182;SDS011;17813;0.000;0.000;2023-03-18T09:13:49;5.97;;;5.20;;
31182;SDS011;17813;0.000;0.000;2023-03-18T09:16:18;5.47;;;4.82;;
31182;SDS011;17813;0.000;0.000;2023-03-18T09:18:45;6.27;;;4.73;;
31182;SDS011;17813;0.000;0.000;2023-03-18T09:21:15;6.22;;;4.60;;
31182;SDS011;17813;0.000;0.000;2023-03-18T09:23:47;5.90;;;5.07;;
31182;SDS011;17813;0.000;0.000;2023-03-18T09:26:19;6.87;;;5.20;;
31182;SDS011;17813;0.000;0.000;2023-03-18T09:28:46;5.57;;;4.60;;
31182;SDS011;17813;0.000;0.000;2023-03-18T09:31:13;5.95;;;4.45;;
31182;SDS011;17813;0.000;0.000;2023-03-18T09:33:41;5.10;;;4.28;;
31182;SDS011;17813;0.000;0.000;2023-03-18T09:36:08;4.90;;;4.40;;
31182;SDS011;17813;0.000;0.000;2023-03-18T09:38:36;4.78;;;4.07;;
31182;SDS011;17813;0.000;0.000;2023-03-18T09:57:29;4.60;;;3.70;;
31182;SDS011;17813;0.000;0.000;2023-03-18T10:00:04;6.47;;;3.95;;
31182;SDS011;17813;0.000;0.000;2023-03-18T10:02:50;4.93;;;4.03;;
31182;SDS011;17813;0.000;0.000;2023-03-18T10:05:34;4.27;;;3.70;;
31182;SDS011;17813;0.000;0.000;2023-03-18T10:08:13;4.20;;;3.47;;
31182;SDS011;17813;0.000;0.000;2023-03-18T10:11:05;4.93;;;3.60;;
31182;SDS011;17813;0.000;0.000;2023-03-18T10:13:51;4.80;;;4.00;;
31182;SDS011;17813;0.000;0.000;2023-03-18T10:16:49;5.10;;;3.50;;
31182;SDS011;17813;0.000;0.000;2023-03-18T10:19:19;3.90;;;3.10;;
31182;SDS011;17813;0.000;0.000;2023-03-18T10:40:45;4.50;;;3.50;;
31182;SDS011;17813;0.000;0.000;2023-03-18T10:43:23;4.07;;;3.63;;
31182;SDS011;17813;0.000;0.000;2023-03-18T10:46:05;4.32;;;3.50;;
31182;SDS011;17813;0.000;0.000;2023-03-18T10:48:46;4.00;;;3.30;;
31182;SDS011;17813;0.000;0.000;2023-03-18T10:54:18;4.55;;;3.30;;
31182;SDS011;17813;0.000;0.000;2023-03-18T10:57:11;4.70;;;3.72;;
31182;SDS011;17813;0.000;0.000;2023-03-18T10:59:40;7.97;;;3.70;;
31182;SDS011;17813;0.000;0.000;2023-03-18T11:02:18;4.38;;;2.90;;
31182;SDS011;17813;0.000;0.000;2023-03-18T11:04:51;4.13;;;3.00;;
31182;SDS011;17813;0.000;0.000;2023-03-18T11:07:26;2.58;;;2.30;;
31182;SDS011;17813;0.000;0.000;2023-03-18T11:09:54;3.17;;;2.40;;
31182;SDS011;17813;0.000;0.000;2023-03-18T11:12:48;3.33;;;2.15;;
31182;SDS011;17813;0.000;0.000;2023-03-18T11:15:20;3.45;;;2.75;;
31182;SDS011;17813;0.000;0.000;2023-03-18T11:17:48;3.85;;;2.22;;
31182;SDS011;17813;0.000;0.000;2023-03-18T11:20:38;3.50;;;2.28;;
31182;SDS011;17813;0.000;0.000;2023-03-18T11:23:14;4.72;;;2.30;;
31182;SDS011;17813;0.000;0.000;2023-03-18T11:26:20;3.35;;;2.33;;
31182;SDS011;17813;0.000;0.000;2023-03-18T11:28:47;2.75;;;2.30;;
31182;SDS011;17813;0.000;0.000;2023-03-18T11:31:19;3.45;;;2.17;;
31182;SDS011;17813;0.000;0.000;2023-03-18T11:33:45;2.97;;;2.28;;
31182;SDS011;17813;0.000;0.000;2023-03-18T11:36:14;2.75;;;2.30;;
31182;SDS011;17813;0.000;0.000;2023-03-18T11:39:05;2.75;;;1.88;;
31182;SDS011;17813;0.000;0.000;2023-03-18T11:41:42;5.55;;;2.33;;
31182;SDS011;17813;0.000;0.000;2023-03-18T11:44:28;2.78;;;2.35;;
31182;SDS011;17813;0.000;0.000;2023-03-18T11:47:01;2.25;;;2.05;;
31182;SDS011;17813;0.000;0.000;2023-03-18T11:49:32;2.95;;;2.50;;
31182;SDS011;17813;0.000;0.000;2023-03-18T11:52:19;3.03;;;2.47;;
31182;SDS011;17813;0.000;0.000;2023-03-18T11:55:00;2.90;;;2.17;;
31182;SDS011;17813;0.000;0.000;2023-03-18T12:03:57;4.03;;;2.65;;
31182;SDS011;17813;0.000;0.000;2023-03-18T12:06:29;3.63;;;2.55;;
31182;SDS011;17813;0.000;0.000;2023-03-18T12:11:58;2.92;;;2.58;;
31182;SDS011;17813;0.000;0.000;2023-03-18T12:14:38;2.88;;;2.58;;
31182;SDS011;17813;0.000;0.000;2023-03-18T12:26:08;3.22;;;2.45;;
31182;SDS011;17813;0.000;0.000;2023-03-18T12:33:47;2.55;;;2.17;;
31182;SDS011;17813;0.000;0.000;2023-03-18T12:36:40;3.58;;;2.38;;
31182;SDS011;17813;0.000;0.000;2023-03-18T12:45:05;2.10;;;1.90;;
31182;SDS011;17813;0.000;0.000;2023-03-18T12:50:15;2.20;;;2.00;;
31182;SDS011;17813;0.000;0.000;2023-03-18T12:55:27;4.82;;;2.30;;
31182;SDS011;17813;0.000;0.000;2023-03-18T12:57:58;3.28;;;1.83;;
31182;SDS011;17813;0.000;0.000;2023-03-18T13:00:40;3.17;;;1.98;;
31182;SDS011;17813;0.000;0.000;2023-03-18T13:03:32;2.45;;;1.83;;
31182;SDS011;17813;0.000;0.000;2023-03-18T13:12:00;3.65;;;1.95;;
31182;SDS011;17813;0.000;0.000;2023-03-18T13:14:45;2.85;;;2.20;;
31182;SDS011;17813;0.000;0.000;2023-03-18T13:20:02;3.00;;;1.90;;
31182;SDS011;17813;0.000;0.000;2023-03-18T13:28:12;2.58;;;2.05;;
31182;SDS011;17813;0.000;0.000;2023-03-18T13:39:37;2.85;;;2.17;;
31182;SDS011;17813;0.000;0.000;2023-03-18T13:44:42;3.53;;;1.92;;
31182;SDS011;17813;0.000;0.000;2023-03-18T13:47:31;2.70;;;1.98;;
31182;SDS011;17813;0.000;0.000;2023-03-18T13:50:04;2.97;;;1.90;;
31182;SDS011;17813;0.000;0.000;2023-03-18T13:52:45;2.70;;;1.75;;
31182;SDS011;17813;0.000;0.000;2023-03-18T14:00:31;2.00;;;1.80;;
31182;SDS011;17813;0.000;0.000;2023-03-18T14:03:12;2.75;;;2.00;;
31182;SDS011;17813;0.000;0.000;2023-03-18T14:05:44;3.22;;;2.22;;
31182;SDS011;17813;0.000;0.000;2023-03-18T14:16:15;4.53;;;3.03;;
31182;SDS011;17813;0.000;0.000;2023-03-18T14:18:58;3.28;;;2.65;;
31182;SDS011;17813;0.000;0.000;2023-03-18T14:25:17;3.67;;;2.50;;
31182;SDS011;17813;0.000;0.000;2023-03-18T14:35:48;2.33;;;2.13;;
31182;SDS011;17813;0.000;0.000;2023-03-18T14:38:24;2.50;;;2.10;;
31182;SDS011;17813;0.000;0.000;2023-03-18T14:41:05;2.88;;;2.15;;
31182;SDS011;17813;0.000;0.000;2023-03-18T14:44:00;2.90;;;2.00;;
31182;SDS011;17813;0.000;0.000;2023-03-18T14:46:56;3.58;;;2.20;;
31182;SDS011;17813;0.000;0.000;2023-03-18T14:49:43;2.65;;;2.30;;
31182;SDS011;17813;0.000;0.000;2023-03-18T14:52:36;3.17;;;2.63;;
31182;SDS011;17813;0.000;0.000;2023-03-18T14:55:07;3.03;;;2.10;;
31182;SDS011;17813;0.000;0.000;2023-03-18T14:57:50;2.70;;;2.05;;
31182;SDS011;17813;0.000;0.000;2023-03-18T15:00:20;3.75;;;2.22;;
31182;SDS011;17813;0.000;0.000;2023-03-18T15:02:53;2.17;;;1.80;;
31182;SDS011;17813;0.000;0.000;2023-03-18T15:05:35;2.83;;;2.20;;
31182;SDS011;17813;0.000;0.000;2023-03-18T15:08:24;2.90;;;2.00;;
31182;SDS011;17813;0.000;0.000;2023-03-18T15:10:54;1.92;;;1.80;;
31182;SDS011;17813;0.000;0.000;2023-03-18T15:13:24;2.20;;;1.77;;
31182;SDS011;17813;0.000;0.000;2023-03-18T15:15:56;4.85;;;2.13;;
31182;SDS011;17813;0.000;0.000;2023-03-18T15:18:34;3.28;;;2.13;;
31182;SDS011;17813;0.000;0.000;2023-03-18T15:23:54;2.33;;;2.10;;
31182;SDS011;17813;0.000;0.000;2023-03-18T15:26:24;5.47;;;4.50;;
31182;SDS011;17813;0.000;0.000;2023-03-18T15:28:56;2.87;;;2.40;;
31182;SDS011;17813;0.000;0.000;2023-03-18T15:31:28;2.80;;;2.10;;
31182;SDS011;17813;0.000;0.000;2023-03-18T15:34:06;3.05;;;1.88;;
31182;SDS011;17813;0.000;0.000;2023-03-18T15:36:45;2.83;;;1.80;;
31182;SDS011;17813;0.000;0.000;2023-03-18T15:39:28;1.93;;;1.60;;
31182;SDS011;17813;0.000;0.000;2023-03-18T15:42:18;6.03;;;1.88;;
31182;SDS011;17813;0.000;0.000;2023-03-18T15:44:58;2.05;;;1.83;;
31182;SDS011;17813;0.000;0.000;2023-03-18T15:47:31;2.10;;;1.90;;
31182;SDS011;17813;0.000;0.000;2023-03-18T15:49:59;2.30;;;1.95;;
31182;SDS011;17813;0.000;0.000;2023-03-18T15:52:39;3.88;;;2.20;;
31182;SDS011;17813;0.000;0.000;2023-03-18T15:58:34;3.20;;;2.10;;
31182;SDS011;17813;0.000;0.000;2023-03-18T16:01:02;3.72;;;2.20;;
31182;SDS011;17813;0.000;0.000;2023-03-18T16:03:33;4.45;;;2.28;;
31182;SDS011;17813;0.000;0.000;2023-03-18T16:06:01;2.63;;;1.83;;
31182;SDS011;17813;0.000;0.000;2023-03-18T16:08:30;4.63;;;2.40;;
31182;SDS011;17813;0.000;0.000;2023-03-18T16:11:01;5.40;;;2.13;;
31182;SDS011;17813;0.000;0.000;2023-03-18T16:13:39;2.57;;;2.30;;
31182;SDS011;17813;0.000;0.000;2023-03-18T16:16:33;3.17;;;2.00;;
31182;SDS011;17813;0.000;0.000;2023-03-18T16:19:01;3.63;;;2.20;;
31182;SDS011;17813;0.000;0.000;2023-03-18T16:21:28;3.13;;;2.33;;
31182;SDS011;17813;0.000;0.000;2023-03-18T16:23:55;4.10;;;2.50;;
31182;SDS011;17813;0.000;0.000;2023-03-18T16:26:22;6.63;;;2.60;;
31182;SDS011;17813;0.000;0.000;2023-03-18T16:28:50;4.43;;;2.38;;
31182;SDS011;17813;0.000;0.000;2023-03-18T16:31:17;2.87;;;2.20;;
31182;SDS011;17813;0.000;0.000;2023-03-18T16:33:44;2.30;;;2.03;;
31182;SDS011;17813;0.000;0.000;2023-03-18T16:36:26;4.87;;;3.10;;
31182;SDS011;17813;0.000;0.000;2023-03-18T16:39:00;5.17;;;3.27;;
31182;SDS011;17813;0.000;0.000;2023-03-18T16:41:39;4.07;;;3.17;;
31182;SDS011;17813;0.000;0.000;2023-03-18T16:44:09;3.90;;;2.97;;
31182;SDS011;17813;0.000;0.000;2023-03-18T16:46:38;5.83;;;3.10;;
31182;SDS011;17813;0.000;0.000;2023-03-18T16:49:11;3.73;;;2.73;;
31182;SDS011;17813;0.000;0.000;2023-03-18T16:51:40;3.57;;;2.80;;
31182;SDS011;17813;0.000;0.000;2023-03-18T16:54:17;4.03;;;2.97;;
31182;SDS011;17813;0.000;0.000;2023-03-18T16:56:47;3.63;;;3.03;;
31182;SDS011;17813;0.000;0.000;2023-03-18T16:59:17;3.87;;;3.07;;
31182;SDS011;17813;0.000;0.000;2023-03-18T17:01:45;4.40;;;2.80;;
31182;SDS011;17813;0.000;0.000;2023-03-18T17:04:23;5.33;;;3.17;;
31182;SDS011;17813;0.000;0.000;2023-03-18T17:06:50;8.37;;;3.50;;
31182;SDS011;17813;0.000;0.000;2023-03-18T17:09:18;5.33;;;3.13;;
31182;SDS011;17813;0.000;0.000;2023-03-18T17:11:48;6.73;;;3.47;;
31182;SDS011;17813;0.000;0.000;2023-03-18T17:14:23;4.53;;;2.87;;
31182;SDS011;17813;0.000;0.000;2023-03-18T17:17:10;4.23;;;2.90;;
31182;SDS011;17813;0.000;0.000;2023-03-18T17:19:58;5.97;;;2.90;;
31182;SDS011;17813;0.000;0.000;2023-03-18T17:22:27;5.60;;;5.00;;
31182;SDS011;17813;0.000;0.000;2023-03-18T17:24:57;8.93;;;6.00;;
31182;SDS011;17813;0.000;0.000;2023-03-18T17:27:31;6.80;;;5.10;;
31182;SDS011;17813;0.000;0.000;2023-03-18T17:30:20;5.53;;;4.97;;
31182;SDS011;17813;0.000;0.000;2023-03-18T17:32:50;5.60;;;4.00;;
31182;SDS011;17813;0.000;0.000;2023-03-18T17:35:18;6.70;;;4.63;;
31182;SDS011;17813;0.000;0.000;2023-03-18T17:37:47;4.97;;;3.93;;
31182;SDS011;17813;0.000;0.000;2023-03-18T17:40:15;3.80;;;3.30;;
31182;SDS011;17813;0.000;0.000;2023-03-18T17:42:43;6.30;;;4.97;;
31182;SDS011;17813;0.000;0.000;2023-03-18T17:47:39;5.00;;;4.47;;
31182;SDS011;17813;0.000;0.000;2023-03-18T17:50:12;4.57;;;3.80;;